Ana Sayfa
METAR-TAF:

METAR-TAF

Havaalanları :

Sam Mbakwe Airport

Owerri, Nijerya

Enlem: 5-25-35N, Boylam: 7-12-20E, yükseklik: 114 m

Güncel hava durumu gözlemi

Rapor saat 22:00 UTC de 8 saat ve 28 dakika önce yapıldı.
Sakin rüzgar
Sıcaklık 26°C
Nem 94%
Basınç 1012 hPa
Görüş mesafesi 10 km veya daha fazla
1000 ft yükseklikte parçalı çok bulutlu
2000 ft yükseklikte az bulutlu, Kümülonimbus.
gök gürültülü fırtına,

METAR: DNIM 182200Z 00000KT 9999 TS BKN010 FEW020CB 26/25 Q1012 NOSIG

Saat: 07:28 (06:28 UTC)


TAF: eksik

4.000'den fazla havaalanı için hava durumu gözlemleri ve tahminleri (METAR ve TAF raporları).

Kullanılabilir istasyonlar harita üzerinde sarı ve kırmızı noktalarla gösterilir.

İstasyonun adını görmek için fareyi noktanın üzerinde gezdirin.

Sonrasında hava gözlem ve tahminlerini görmek için tıklayın.

Haritayı değiştirmek için: yaklaştırmak için siyah artı işaretli yeşil düğmeye ve uzaklaştırmak için de eksi işaretli düğmeye hızla tıklayın; bitişik haritalar için yeşil okları kullanın.


METAR-TAF: